createdAt,value
2018-12-02T00:00:33.986Z,25.90
2018-12-02T00:03:37.295Z,23.57
2018-12-02T00:06:40.451Z,24.23
2018-12-02T00:09:43.779Z,23.40
2018-12-02T00:12:46.953Z,25.17
2018-12-02T00:15:50.068Z,25.40
2018-12-02T00:18:53.251Z,26.13
2018-12-02T00:21:56.463Z,26.67
2018-12-02T00:24:59.503Z,26.77
2018-12-02T00:28:02.738Z,27.83
2018-12-02T00:31:06.224Z,28.47
2018-12-02T00:34:09.303Z,30.93
2018-12-02T00:37:12.527Z,29.60
2018-12-02T00:40:16.413Z,28.80
2018-12-02T00:43:19.647Z,28.00
2018-12-02T00:46:22.723Z,27.07
2018-12-02T00:49:25.822Z,27.73
2018-12-02T00:52:28.887Z,27.70
2018-12-02T00:55:34.483Z,25.93
2018-12-02T00:58:37.551Z,26.57
2018-12-02T01:01:40.650Z,25.80
2018-12-02T01:04:43.695Z,27.70
2018-12-02T01:07:46.956Z,28.03
2018-12-02T01:10:49.999Z,25.80
2018-12-02T01:13:53.123Z,24.93
2018-12-02T01:16:56.182Z,25.30
2018-12-02T01:19:59.324Z,28.10
2018-12-02T01:23:02.379Z,32.57
2018-12-02T01:26:05.475Z,33.50
2018-12-02T01:29:08.603Z,28.07
2018-12-02T01:32:11.655Z,25.67
2018-12-02T01:35:15.800Z,25.37
2018-12-02T01:38:18.867Z,27.90
2018-12-02T01:41:21.997Z,29.20
2018-12-02T01:44:25.050Z,32.40
2018-12-02T01:47:28.211Z,27.90
2018-12-02T01:50:31.235Z,28.30
2018-12-02T01:53:34.399Z,30.47
2018-12-02T01:56:37.419Z,30.53
2018-12-02T01:59:40.751Z,29.13
2018-12-02T02:02:43.807Z,28.17
2018-12-02T02:05:47.976Z,29.63
2018-12-02T02:08:51.023Z,28.60
2018-12-02T02:11:54.254Z,27.90
2018-12-02T02:14:57.310Z,26.90
2018-12-02T02:18:00.406Z,25.67
2018-12-02T02:21:03.635Z,26.60
2018-12-02T02:24:06.687Z,25.70
2018-12-02T02:27:09.816Z,25.67
2018-12-02T02:30:15.805Z,26.40
2018-12-02T02:33:19.179Z,25.87
2018-12-02T02:36:22.240Z,26.57
2018-12-02T02:39:25.355Z,23.80
2018-12-02T02:42:28.420Z,23.27
2018-12-02T02:45:31.516Z,22.63
2018-12-02T02:48:34.604Z,25.50
2018-12-02T02:51:37.701Z,23.07
2018-12-02T02:54:40.788Z,24.47
2018-12-02T02:57:43.985Z,24.73
2018-12-02T03:00:47.383Z,24.70
2018-12-02T03:03:50.583Z,22.23
2018-12-02T03:06:53.784Z,20.93
2018-12-02T03:09:56.975Z,18.77
2018-12-02T03:13:00.315Z,20.53
2018-12-02T03:16:03.466Z,19.83
2018-12-02T03:19:06.589Z,21.10
2018-12-02T03:22:09.753Z,20.77
2018-12-02T03:25:15.795Z,21.43
2018-12-02T03:28:18.907Z,23.27
2018-12-02T03:31:22.076Z,23.53
2018-12-02T03:34:25.299Z,21.77
2018-12-02T03:37:28.491Z,20.67
2018-12-02T03:40:31.584Z,20.63
2018-12-02T03:43:34.682Z,21.43
2018-12-02T03:46:37.800Z,20.33
2018-12-02T03:49:40.866Z,18.73
2018-12-02T03:52:43.956Z,19.37
2018-12-02T03:55:47.183Z,19.20
2018-12-02T03:58:50.243Z,19.37
2018-12-02T04:01:53.335Z,18.63
2018-12-02T04:04:56.526Z,20.33
2018-12-02T04:07:59.624Z,20.50
2018-12-02T04:11:02.815Z,20.17
2018-12-02T04:14:06.635Z,19.07
2018-12-02T04:17:09.720Z,19.07
2018-12-02T04:20:15.349Z,19.27
2018-12-02T04:23:18.603Z,19.73
2018-12-02T04:26:21.660Z,19.33
2018-12-02T04:29:24.751Z,21.53
2018-12-02T04:32:27.847Z,19.83
2018-12-02T04:35:31.013Z,18.93
2018-12-02T04:38:34.131Z,19.40
2018-12-02T04:41:37.533Z,18.87
2018-12-02T04:44:40.720Z,20.00
2018-12-02T04:47:43.904Z,18.63
2018-12-02T04:50:47.147Z,18.03
2018-12-02T04:53:50.215Z,16.97
2018-12-02T04:56:53.286Z,17.73
2018-12-02T04:59:56.395Z,18.70
2018-12-02T05:02:59.487Z,17.37
2018-12-02T05:06:02.595Z,16.77
2018-12-02T05:09:06.703Z,18.27
2018-12-02T05:12:09.795Z,17.53
2018-12-02T05:15:14.507Z,16.33
2018-12-02T05:18:17.599Z,17.70
2018-12-02T05:21:20.607Z,17.90
2018-12-02T05:24:23.804Z,18.07
2018-12-02T05:27:26.928Z,17.33
2018-12-02T05:30:29.996Z,18.20
2018-12-02T05:33:33.079Z,18.67
2018-12-02T05:36:36.172Z,19.63
2018-12-02T05:39:39.470Z,18.80
2018-12-02T05:42:42.563Z,18.97
2018-12-02T05:45:45.651Z,17.20
2018-12-02T05:48:48.851Z,17.77
2018-12-02T05:51:51.940Z,17.27
2018-12-02T05:54:55.035Z,17.00
2018-12-02T05:57:58.126Z,17.07
2018-12-02T06:01:01.229Z,16.77
2018-12-02T06:04:04.619Z,15.83
2018-12-02T06:07:07.711Z,18.00
2018-12-02T06:10:13.874Z,14.77
2018-12-02T06:13:16.967Z,15.83
2018-12-02T06:16:20.062Z,15.97
2018-12-02T06:19:23.151Z,16.93
2018-12-02T06:22:26.347Z,15.77
2018-12-02T06:25:29.438Z,16.43
2018-12-02T06:28:32.530Z,15.27
2018-12-02T06:31:35.624Z,16.33
2018-12-02T06:34:38.723Z,15.13
2018-12-02T06:37:41.918Z,15.80
2018-12-02T06:40:45.007Z,14.60
2018-12-02T06:43:48.207Z,15.57
2018-12-02T06:46:51.298Z,14.70
2018-12-02T06:49:54.387Z,14.60
2018-12-02T06:52:57.647Z,14.37
2018-12-02T06:56:07.098Z,13.97
2018-12-02T06:59:22.275Z,12.67
2018-12-02T07:03:07.031Z,14.10
2018-12-02T07:06:10.067Z,13.43
2018-12-02T07:09:13.288Z,12.43
2018-12-02T07:12:16.346Z,13.53
2018-12-02T07:15:19.543Z,12.67
2018-12-02T07:18:26.255Z,14.00
2018-12-02T07:21:31.647Z,14.37
2018-12-02T07:24:38.819Z,13.17
2018-12-02T07:27:41.851Z,13.43
2018-12-02T07:30:44.947Z,12.63
2018-12-02T07:33:48.143Z,12.50
2018-12-02T07:36:51.339Z,13.37
2018-12-02T07:40:32.622Z,12.23
2018-12-02T07:43:35.718Z,12.17
2018-12-02T07:46:38.806Z,11.00
2018-12-02T07:49:41.903Z,12.23
2018-12-02T07:52:44.995Z,11.50
2018-12-02T07:55:48.275Z,11.67
2018-12-02T07:58:51.283Z,11.90
2018-12-02T08:01:54.479Z,12.13
2018-12-02T08:04:57.588Z,12.23
2018-12-02T08:08:01.243Z,11.93
2018-12-02T08:11:04.576Z,12.80
2018-12-02T08:14:07.667Z,12.47
2018-12-02T08:17:10.763Z,12.93
2018-12-02T08:20:16.414Z,11.77
2018-12-02T08:23:20.527Z,12.10
2018-12-02T08:26:23.622Z,11.50
2018-12-02T08:29:26.715Z,12.67
2018-12-02T08:32:29.811Z,11.63
2018-12-02T08:35:32.902Z,12.57
2018-12-02T08:38:35.995Z,11.93
2018-12-02T08:41:39.103Z,11.30
2018-12-02T08:44:42.278Z,12.43
2018-12-02T08:47:45.476Z,11.83
2018-12-02T08:50:48.568Z,12.00
2018-12-02T08:53:51.659Z,10.73
2018-12-02T08:56:54.832Z,11.30
2018-12-02T08:59:57.833Z,11.07
2018-12-02T09:03:02.631Z,11.03
2018-12-02T09:06:05.831Z,10.90
2018-12-02T09:09:09.992Z,10.70
2018-12-02T09:12:13.087Z,10.60
2018-12-02T09:15:16.177Z,10.80
2018-12-02T09:18:19.259Z,10.37
2018-12-02T09:21:22.365Z,11.40
2018-12-02T09:24:25.458Z,11.53
2018-12-02T09:27:28.546Z,11.00
2018-12-02T09:30:32.855Z,11.03
2018-12-02T09:33:35.843Z,11.20
2018-12-02T09:36:38.851Z,10.63
2018-12-02T09:39:41.943Z,11.23
2018-12-02T09:42:47.130Z,11.43
2018-12-02T09:45:50.737Z,10.80
2018-12-02T09:48:53.875Z,10.83
2018-12-02T09:51:56.975Z,10.17
2018-12-02T09:55:00.072Z,10.53
2018-12-02T09:58:03.238Z,10.43
2018-12-02T10:01:06.530Z,10.27
2018-12-02T10:04:09.551Z,10.07
2018-12-02T10:07:12.643Z,9.23
2018-12-02T10:10:22.104Z,10.60
2018-12-02T10:13:21.508Z,9.43
2018-12-02T10:16:24.586Z,10.07
2018-12-02T10:19:27.712Z,9.33
2018-12-02T10:22:30.807Z,9.18
2018-12-02T10:25:33.863Z,10.40
2018-12-02T10:28:36.999Z,9.30
2018-12-02T10:31:40.287Z,9.90
2018-12-02T10:34:43.349Z,9.13
2018-12-02T10:37:46.787Z,10.10
2018-12-02T10:40:49.835Z,8.87
2018-12-02T10:43:53.027Z,8.63
2018-12-02T10:46:56.127Z,10.07
2018-12-02T10:49:59.251Z,9.80
2018-12-02T10:53:03.727Z,9.40
2018-12-02T10:56:06.974Z,9.73
2018-12-02T10:59:10.031Z,9.57
2018-12-02T11:02:15.623Z,8.77
2018-12-02T11:05:18.798Z,9.00
2018-12-02T11:08:21.903Z,8.83
2018-12-02T11:11:24.963Z,7.97
2018-12-02T11:14:28.851Z,9.70
2018-12-02T11:17:32.207Z,8.27
2018-12-02T11:20:35.271Z,9.17
2018-12-02T11:23:38.383Z,8.70
2018-12-02T11:26:41.520Z,8.10
2018-12-02T11:29:44.680Z,8.43
2018-12-02T11:32:48.243Z,8.10
2018-12-02T11:35:51.363Z,7.87
2018-12-02T11:38:54.454Z,8.30
2018-12-02T11:41:58.148Z,7.87
2018-12-02T11:45:01.275Z,8.63
2018-12-02T11:48:04.934Z,6.70
2018-12-02T11:51:08.071Z,7.53
2018-12-02T11:54:11.131Z,6.90
2018-12-02T11:57:14.254Z,7.93
2018-12-02T12:00:24.156Z,7.10
2018-12-02T12:03:27.199Z,6.63
2018-12-02T12:06:30.263Z,7.00
2018-12-02T12:09:34.171Z,7.47
2018-12-02T12:12:38.064Z,6.33
2018-12-02T12:15:41.061Z,7.10
2018-12-02T12:18:44.199Z,5.77
2018-12-02T12:21:47.395Z,6.33
2018-12-02T12:24:50.455Z,6.70
2018-12-02T12:27:54.760Z,6.67
2018-12-02T12:30:57.867Z,7.23
2018-12-02T12:34:00.992Z,7.10
2018-12-02T12:37:04.327Z,8.20
2018-12-02T12:40:10.677Z,7.30
2018-12-02T12:43:34.101Z,7.45
2018-12-02T12:46:37.328Z,7.23
2018-12-02T12:49:40.382Z,6.93
2018-12-02T12:52:43.551Z,7.15
2018-12-02T12:55:50.922Z,6.73
2018-12-02T12:58:49.711Z,6.07
2018-12-02T13:01:52.858Z,6.83
2018-12-02T13:04:55.983Z,7.33
2018-12-02T13:07:59.068Z,6.67
2018-12-02T13:11:02.681Z,6.87
2018-12-02T13:14:06.595Z,7.47
2018-12-02T13:17:09.765Z,6.53
2018-12-02T13:20:19.294Z,6.60
2018-12-02T13:23:22.665Z,6.70
2018-12-02T13:26:25.969Z,6.30
2018-12-02T13:29:29.024Z,6.40
2018-12-02T13:32:32.368Z,7.60
2018-12-02T13:35:36.249Z,6.87
2018-12-02T13:38:39.487Z,7.30
2018-12-02T13:41:42.545Z,7.55
2018-12-02T13:44:45.764Z,7.33
2018-12-02T13:47:49.135Z,7.50
2018-12-02T13:50:52.457Z,7.63
2018-12-02T13:54:02.056Z,8.33
2018-12-02T13:57:06.463Z,8.07
2018-12-02T14:00:16.148Z,8.18
2018-12-02T14:03:19.336Z,8.13
2018-12-02T14:06:22.471Z,7.87
2018-12-02T14:09:25.527Z,7.87
2018-12-02T14:12:28.649Z,7.67
2018-12-02T14:16:47.377Z,8.20
2018-12-02T14:19:50.463Z,7.73
2018-12-02T14:22:53.565Z,7.40
2018-12-02T14:25:58.804Z,7.80
2018-12-02T14:29:34.964Z,7.97
2018-12-02T14:32:38.174Z,8.50
2018-12-02T14:35:41.314Z,8.13
2018-12-02T14:38:44.562Z,7.97
2018-12-02T14:41:47.858Z,7.77
2018-12-02T14:44:50.940Z,6.90
2018-12-02T14:47:54.146Z,7.33
2018-12-02T14:50:57.242Z,8.27
2018-12-02T14:54:00.984Z,8.30
2018-12-02T14:57:04.248Z,8.13
2018-12-02T15:00:18.801Z,8.03
2018-12-02T15:03:22.570Z,9.10
2018-12-02T15:06:25.876Z,8.90
2018-12-02T15:09:29.955Z,10.03
2018-12-02T15:12:33.112Z,9.70
2018-12-02T15:15:36.935Z,10.13
2018-12-02T15:18:40.122Z,11.30
2018-12-02T15:21:44.379Z,10.43
2018-12-02T15:24:47.547Z,11.70
2018-12-02T15:27:50.696Z,11.97
2018-12-02T15:30:53.914Z,12.00
2018-12-02T15:33:57.596Z,12.70
2018-12-02T15:37:00.729Z,12.10
2018-12-02T15:40:05.132Z,13.53
2018-12-02T15:43:08.246Z,12.67
2018-12-02T15:46:11.329Z,13.53
2018-12-02T15:49:26.813Z,14.10
2018-12-02T15:52:30.009Z,15.13
2018-12-02T15:55:34.125Z,15.07
2018-12-02T15:58:37.320Z,14.77
2018-12-02T16:01:40.718Z,15.93
2018-12-02T16:04:44.152Z,15.47
2018-12-02T16:07:47.833Z,16.07
2018-12-02T16:10:51.258Z,14.10
2018-12-02T16:13:54.730Z,15.97
2018-12-02T16:16:58.016Z,15.33
2018-12-02T16:20:01.322Z,14.77
2018-12-02T16:23:04.835Z,15.00
2018-12-02T16:26:08.124Z,13.93
2018-12-02T16:29:11.638Z,15.30
2018-12-02T16:32:14.982Z,15.00
2018-12-02T16:35:18.691Z,15.77
2018-12-02T16:38:21.928Z,15.13
2018-12-02T16:41:25.988Z,15.27
2018-12-02T16:44:29.323Z,13.83
2018-12-02T16:47:32.568Z,12.83
2018-12-02T16:50:37.118Z,14.20
2018-12-02T16:53:40.550Z,15.17
2018-12-02T16:56:44.006Z,13.90
2018-12-02T16:59:47.100Z,15.37
2018-12-02T17:02:50.793Z,15.53
2018-12-02T17:05:53.846Z,17.20
2018-12-02T17:08:58.199Z,16.27
2018-12-02T17:12:01.439Z,17.53
2018-12-02T17:15:11.833Z,16.63
2018-12-02T17:18:15.128Z,17.07
2018-12-02T17:21:18.348Z,17.87
2018-12-02T17:24:21.555Z,16.93
2018-12-02T17:27:25.392Z,15.37
2018-12-02T17:30:39.513Z,15.87
2018-12-02T17:33:42.564Z,15.40
2018-12-02T17:36:45.696Z,16.80
2018-12-02T17:39:51.713Z,16.10
2018-12-02T17:42:54.892Z,15.67
2018-12-02T17:45:58.009Z,15.70
2018-12-02T17:49:01.341Z,17.13
2018-12-02T17:52:05.202Z,16.03
2018-12-02T17:55:08.581Z,15.57
2018-12-02T17:58:11.709Z,16.37
2018-12-02T18:01:15.044Z,16.77
2018-12-02T18:04:18.231Z,17.00
2018-12-02T18:07:21.516Z,16.73
2018-12-02T18:10:24.836Z,17.77
2018-12-02T18:13:28.095Z,15.30
2018-12-02T18:16:31.427Z,16.50
2018-12-02T18:19:34.856Z,17.63
2018-12-02T18:22:38.192Z,17.43
2018-12-02T18:25:41.442Z,18.23
2018-12-02T18:28:44.795Z,17.90
2018-12-02T18:31:48.269Z,17.20
2018-12-02T18:34:51.677Z,18.97
2018-12-02T18:37:57.197Z,17.52
2018-12-02T18:41:07.624Z,18.30
2018-12-02T18:44:12.632Z,17.42
2018-12-02T18:47:16.341Z,18.40
2018-12-02T18:50:19.648Z,19.40
2018-12-02T18:53:23.175Z,19.47
2018-12-02T18:56:26.454Z,19.73
2018-12-02T18:59:29.802Z,18.80
2018-12-02T19:02:33.029Z,19.90
2018-12-02T19:05:36.435Z,19.67
2018-12-02T19:08:40.328Z,18.17
2018-12-02T19:11:43.881Z,20.93
2018-12-02T19:14:47.578Z,19.93
2018-12-02T19:17:51.604Z,20.53
2018-12-02T19:20:59.630Z,20.67
2018-12-02T19:24:03.124Z,21.67
2018-12-02T19:27:06.203Z,20.40
2018-12-02T19:30:11.086Z,20.43
2018-12-02T19:33:22.064Z,20.50
2018-12-02T19:36:35.343Z,21.42
2018-12-02T19:39:38.474Z,20.00
2018-12-02T19:42:41.532Z,19.90
2018-12-02T19:45:45.627Z,22.07
2018-12-02T19:48:48.747Z,21.40
2018-12-02T19:51:51.859Z,20.27
2018-12-02T19:54:54.927Z,20.93
2018-12-02T19:57:58.169Z,19.80
2018-12-02T20:01:01.295Z,22.98
2018-12-02T20:04:04.749Z,20.70
2018-12-02T20:07:07.808Z,21.07
2018-12-02T20:10:12.639Z,19.30
2018-12-02T20:13:17.755Z,18.03
2018-12-02T20:16:20.803Z,18.57
2018-12-02T20:19:29.567Z,19.30
2018-12-02T20:22:32.827Z,19.17
2018-12-02T20:25:35.991Z,18.77
2018-12-02T20:28:44.630Z,18.80
2018-12-02T20:31:48.251Z,19.83
2018-12-02T20:34:51.307Z,19.57
2018-12-02T20:37:54.535Z,18.17
2018-12-02T20:40:57.805Z,17.93
2018-12-02T20:44:00.939Z,18.73
2018-12-02T20:47:04.193Z,18.32
2018-12-02T20:50:09.260Z,18.50
2018-12-02T20:53:16.040Z,18.60
2018-12-02T20:56:15.643Z,18.87
2018-12-02T20:59:18.723Z,19.23
2018-12-02T21:02:21.841Z,16.97
2018-12-02T21:05:27.928Z,17.37
2018-12-02T21:08:30.968Z,18.15
2018-12-02T21:11:34.395Z,16.50
2018-12-02T21:14:37.455Z,17.90
2018-12-02T21:17:40.684Z,17.73
2018-12-02T21:20:43.740Z,15.80
2018-12-02T21:23:46.895Z,16.48
2018-12-02T21:26:50.147Z,16.12
2018-12-02T21:29:53.290Z,15.75
2018-12-02T21:32:56.419Z,15.75
2018-12-02T21:35:59.547Z,15.35
2018-12-02T21:39:02.779Z,13.57
2018-12-02T21:42:13.411Z,13.93
2018-12-02T21:45:17.281Z,13.10
2018-12-02T21:48:21.099Z,14.23
2018-12-02T21:51:24.311Z,13.40
2018-12-02T21:54:27.375Z,13.08
2018-12-02T21:57:30.623Z,12.18
2018-12-02T22:00:39.020Z,14.07
2018-12-02T22:03:42.519Z,13.15
2018-12-02T22:06:45.603Z,13.53
2018-12-02T22:09:48.923Z,13.15
2018-12-02T22:12:52.187Z,12.28
2018-12-02T22:15:55.296Z,13.58
2018-12-02T22:18:58.420Z,13.93
2018-12-02T22:22:01.863Z,12.45
2018-12-02T22:25:06.339Z,12.70
2018-12-02T22:28:09.586Z,11.45
2018-12-02T22:31:12.822Z,11.50
2018-12-02T22:34:15.923Z,10.95
2018-12-02T22:37:19.014Z,11.83
2018-12-02T22:40:23.247Z,11.43
2018-12-02T22:43:26.813Z,11.83
2018-12-02T22:46:29.894Z,11.20
2018-12-02T22:49:33.092Z,12.25
2018-12-02T22:52:36.287Z,11.57
2018-12-02T22:55:39.479Z,12.35
2018-12-02T22:58:42.711Z,11.93
2018-12-02T23:01:51.152Z,11.40
2018-12-02T23:04:54.327Z,10.57
2018-12-02T23:07:57.388Z,10.40
2018-12-02T23:11:01.308Z,9.73
2018-12-02T23:14:04.782Z,9.73
2018-12-02T23:17:16.404Z,10.20
2018-12-02T23:20:19.704Z,10.15
2018-12-02T23:23:22.879Z,10.32
2018-12-02T23:26:26.007Z,8.98
2018-12-02T23:29:29.192Z,9.90
2018-12-02T23:32:32.263Z,9.50
2018-12-02T23:35:35.979Z,10.28
2018-12-02T23:38:39.371Z,10.32
2018-12-02T23:41:43.358Z,10.38
2018-12-02T23:44:46.487Z,10.10
2018-12-02T23:47:49.569Z,8.95
2018-12-02T23:50:52.867Z,9.80
2018-12-02T23:53:56.282Z,9.00
2018-12-02T23:56:59.359Z,8.28
